Time;durP1;ratioP1;P1;durP2;ratioP2;P2;SDS_P1;SDS_P2;PMS_P1;PMS_P2;Temp;Humidity;BMP_temperature;BMP_pressure;BME280_temperature;BME280_humidity;BME280_pressure;Samples;Min_cycle;Max_cycle;Signal;HPM_P1;HPM_P2
2021/08/24 00:00:45;;;;;;;5.77;3.90;;;15.90;99.90;;;;;;5088842;28;20612;-68
2021/08/24 00:03:14;;;;;;;4.07;3.70;;;15.90;99.90;;;;;;5087379;28;20187;-68
2021/08/24 00:05:42;;;;;;;5.53;4.10;;;15.80;99.90;;;;;;5087529;28;20251;-68
2021/08/24 00:08:11;;;;;;;8.53;4.53;;;15.80;99.90;;;;;;5085905;28;20211;-67
2021/08/24 00:10:41;;;;;;;5.63;4.40;;;15.80;99.90;;;;;;5068727;28;20241;-67
2021/08/24 00:13:10;;;;;;;4.73;4.33;;;15.70;99.90;;;;;;5088454;28;20321;-68
2021/08/24 00:15:40;;;;;;;6.13;4.17;;;15.70;99.90;;;;;;5089360;28;20267;-67
2021/08/24 00:18:10;;;;;;;4.97;4.27;;;15.60;99.90;;;;;;5087457;28;20191;-68
2021/08/24 00:20:39;;;;;;;7.70;4.37;;;15.60;99.90;;;;;;5074351;28;20712;-68
2021/08/24 00:23:10;;;;;;;5.43;4.70;;;15.50;99.90;;;;;;5086545;28;20198;-67
2021/08/24 00:25:39;;;;;;;5.10;4.60;;;15.50;99.90;;;;;;5087474;28;20673;-68
2021/08/24 00:28:08;;;;;;;4.90;4.50;;;15.40;99.90;;;;;;5067254;28;20744;-67
2021/08/24 00:30:38;;;;;;;5.03;4.53;;;15.40;99.90;;;;;;5066911;28;20253;-68
2021/08/24 00:33:08;;;;;;;6.10;4.90;;;15.40;99.90;;;;;;5086571;28;20195;-68
2021/08/24 00:35:38;;;;;;;4.50;4.20;;;15.30;99.90;;;;;;5088546;28;20282;-68
2021/08/24 00:38:08;;;;;;;4.93;4.53;;;15.30;99.90;;;;;;5089951;28;20246;-67
2021/08/24 00:40:36;;;;;;;4.77;4.33;;;15.20;99.90;;;;;;5071844;28;20230;-68
2021/08/24 00:43:05;;;;;;;5.03;4.63;;;15.20;99.90;;;;;;5087995;28;20412;-68
2021/08/24 00:45:36;;;;;;;8.03;4.47;;;15.10;99.90;;;;;;5087811;28;20211;-66
2021/08/24 00:48:08;;;;;;;5.10;4.70;;;15.10;99.90;;;;;;5088307;28;20194;-68
2021/08/24 00:50:42;;;;;;;5.10;4.70;;;15.00;99.90;;;;;;5092587;28;20574;-68
2021/08/24 00:53:13;;;;;;;5.23;4.53;;;15.00;99.90;;;;;;5088328;28;20411;-67
2021/08/24 00:55:45;;;;;;;5.20;4.63;;;14.90;99.90;;;;;;5086460;28;20192;-67
2021/08/24 00:58:15;;;;;;;5.80;4.40;;;14.90;99.90;;;;;;5085453;28;20278;-68
2021/08/24 01:00:44;;;;;;;6.67;5.00;;;14.80;99.90;;;;;;5085411;28;20192;-67
2021/08/24 01:03:17;;;;;;;7.67;4.60;;;14.80;99.90;;;;;;5084606;28;20303;-68
2021/08/24 01:05:48;;;;;;;5.23;4.83;;;14.70;99.90;;;;;;5085040;28;20268;-68
2021/08/24 01:08:25;;;;;;;6.50;4.97;;;14.70;99.90;;;;;;5085609;28;20271;-68
2021/08/24 01:11:05;;;;;;;5.70;4.87;;;14.60;99.90;;;;;;5086802;28;20229;-68
2021/08/24 01:13:40;;;;;;;6.90;5.10;;;14.60;99.90;;;;;;5086380;28;20202;-68
2021/08/24 01:16:20;;;;;;;5.53;5.03;;;14.50;99.90;;;;;;5089203;28;20560;-68
2021/08/24 01:19:00;;;;;;;6.87;5.63;;;14.50;99.90;;;;;;5086964;28;20507;-68
2021/08/24 01:21:50;;;;;;;5.90;5.10;;;14.50;99.90;;;;;;5086855;28;20227;-68
2021/08/24 01:24:22;;;;;;;6.07;5.27;;;14.40;99.90;;;;;;5088707;28;20631;-68
2021/08/24 01:26:56;;;;;;;5.57;5.00;;;14.50;99.90;;;;;;5086398;28;20199;-67
2021/08/24 01:30:00;;;;;;;6.07;5.57;;;14.40;99.90;;;;;;5085219;28;20266;-68
2021/08/24 01:32:44;;;;;;;8.47;5.90;;;14.40;99.90;;;;;;5083862;28;20615;-67
2021/08/24 01:35:31;;;;;;;5.70;5.20;;;14.30;99.90;;;;;;5086194;28;20283;-67
2021/08/24 01:38:16;;;;;;;7.43;5.47;;;14.30;99.90;;;;;;5086718;28;20227;-68
2021/08/24 01:40:49;;;;;;;6.10;5.50;;;14.30;99.90;;;;;;5085901;28;20385;-67
2021/08/24 01:43:23;;;;;;;6.40;5.57;;;14.20;99.90;;;;;;5086376;28;20666;-68
2021/08/24 01:46:00;;;;;;;7.67;5.30;;;14.20;99.90;;;;;;5069011;28;20284;-68
2021/08/24 01:48:34;;;;;;;6.63;5.90;;;14.20;99.90;;;;;;5082335;28;20194;-68
2021/08/24 01:51:09;;;;;;;10.50;6.43;;;14.20;99.90;;;;;;5089233;28;20615;-67
2021/08/24 01:53:43;;;;;;;5.73;5.20;;;14.10;99.90;;;;;;5082562;28;20281;-67
2021/08/24 01:56:16;;;;;;;6.20;5.63;;;14.00;99.90;;;;;;5083223;28;20287;-68
2021/08/24 01:58:48;;;;;;;7.80;6.17;;;13.90;99.90;;;;;;5082003;28;20286;-67
2021/08/24 02:01:20;;;;;;;7.43;6.50;;;13.90;99.90;;;;;;5085047;28;20283;-67
2021/08/24 02:03:54;;;;;;;7.43;6.17;;;13.80;99.90;;;;;;5083045;28;20667;-68
2021/08/24 02:06:27;;;;;;;6.80;6.20;;;13.80;99.90;;;;;;5066215;28;20318;-68
2021/08/24 02:09:01;;;;;;;6.80;6.10;;;13.70;99.90;;;;;;5081129;28;20189;-68
2021/08/24 02:11:33;;;;;;;6.37;5.77;;;13.70;99.90;;;;;;5066395;28;20256;-67
2021/08/24 02:14:07;;;;;;;9.47;7.00;;;13.70;99.90;;;;;;5086493;28;20227;-68
2021/08/24 02:16:37;;;;;;;7.67;6.00;;;13.70;99.90;;;;;;5084568;28;20307;-68
2021/08/24 02:19:09;;;;;;;7.60;6.50;;;13.60;99.90;;;;;;5084624;28;20179;-68
2021/08/24 02:21:43;;;;;;;7.30;6.60;;;13.60;99.90;;;;;;5084421;28;20583;-68
2021/08/24 02:24:17;;;;;;;11.73;6.57;;;13.50;99.90;;;;;;5082596;28;20291;-68
2021/08/24 02:26:50;;;;;;;7.37;6.60;;;13.50;99.90;;;;;;5084421;28;20263;-67
2021/08/24 02:29:18;;;;;;;8.83;7.20;;;13.50;99.90;;;;;;5083977;28;20203;-67
2021/08/24 02:31:51;;;;;;;6.63;6.13;;;13.50;99.90;;;;;;5069833;28;20845;-67
2021/08/24 02:34:29;;;;;;;7.07;6.30;;;13.40;99.90;;;;;;5083890;28;20227;-68
2021/08/24 02:37:12;;;;;;;12.73;7.07;;;13.40;99.90;;;;;;5085548;28;20183;-68
2021/08/24 02:39:48;;;;;;;7.10;6.40;;;13.40;99.90;;;;;;5087698;28;20584;-68
2021/08/24 02:42:20;;;;;;;7.83;6.53;;;13.30;99.90;;;;;;5082804;28;20645;-67
2021/08/24 02:45:07;;;;;;;9.40;6.87;;;13.30;99.90;;;;;;5087200;28;20634;-67
2021/08/24 02:47:36;;;;;;;8.57;6.57;;;13.20;99.90;;;;;;5085809;28;20263;-68
2021/08/24 02:50:06;;;;;;;8.20;7.23;;;13.20;99.90;;;;;;5085717;28;20923;-68
2021/08/24 02:52:37;;;;;;;7.40;6.60;;;13.20;99.90;;;;;;5085120;28;20226;-67
2021/08/24 02:55:09;;;;;;;7.47;6.43;;;13.10;99.90;;;;;;5084506;28;20275;-68
2021/08/24 02:57:38;;;;;;;7.30;6.17;;;13.10;99.90;;;;;;5088100;28;20812;-68
2021/08/24 03:00:08;;;;;;;9.60;6.57;;;13.10;99.90;;;;;;5083982;28;20195;-68
2021/08/24 03:02:36;;;;;;;8.30;6.97;;;13.10;99.90;;;;;;5086141;28;20714;-68
2021/08/24 03:05:05;;;;;;;10.03;6.80;;;13.00;99.90;;;;;;5081688;28;20721;-68
2021/08/24 03:07:36;;;;;;;8.93;6.93;;;13.00;99.90;;;;;;5087476;28;20229;-68
2021/08/24 03:10:10;;;;;;;10.20;7.00;;;13.00;99.90;;;;;;5083870;28;20262;-68
2021/08/24 03:12:43;;;;;;;14.30;7.13;;;13.00;99.90;;;;;;5084879;28;20226;-68
2021/08/24 03:15:17;;;;;;;8.50;6.63;;;13.00;99.90;;;;;;5083030;28;20191;-68
2021/08/24 03:17:51;;;;;;;8.50;7.17;;;12.90;99.90;;;;;;5084927;28;20184;-68
2021/08/24 03:20:23;;;;;;;8.90;6.80;;;12.90;99.90;;;;;;5086156;28;20188;-68
2021/08/24 03:22:53;;;;;;;9.63;6.60;;;12.90;99.90;;;;;;5083126;28;20191;-68
2021/08/24 03:25:24;;;;;;;9.07;6.77;;;12.90;99.90;;;;;;5083486;28;20263;-67
2021/08/24 03:27:52;;;;;;;11.07;6.93;;;12.80;99.90;;;;;;5092594;28;20609;-68
2021/08/24 03:30:23;;;;;;;7.57;6.67;;;12.80;99.90;;;;;;5087287;28;20212;-68
2021/08/24 03:32:55;;;;;;;7.50;6.73;;;12.80;99.90;;;;;;5088596;28;20192;-68
2021/08/24 03:35:23;;;;;;;7.80;7.00;;;12.80;99.90;;;;;;5086622;28;20252;-68
2021/08/24 03:37:51;;;;;;;10.90;7.13;;;12.80;99.90;;;;;;5088773;28;20275;-68
2021/08/24 03:40:22;;;;;;;8.00;7.20;;;12.80;99.90;;;;;;5092216;28;20193;-67
2021/08/24 03:42:50;;;;;;;9.10;6.77;;;12.80;99.90;;;;;;5087193;28;20215;-68
2021/08/24 03:45:19;;;;;;;10.57;6.80;;;12.70;99.90;;;;;;5086293;28;20654;-67
2021/08/24 03:47:47;;;;;;;7.63;6.80;;;12.70;99.90;;;;;;5087679;28;20331;-68
2021/08/24 03:50:16;;;;;;;8.53;7.50;;;12.70;99.90;;;;;;5088733;28;20565;-68
2021/08/24 03:52:47;;;;;;;9.33;6.90;;;12.60;99.90;;;;;;5088831;28;20199;-68
2021/08/24 03:55:16;;;;;;;8.07;7.00;;;12.60;99.90;;;;;;5085283;28;20279;-68
2021/08/24 03:57:46;;;;;;;7.50;6.80;;;12.60;99.90;;;;;;5088478;28;20191;-68
2021/08/24 04:00:15;;;;;;;7.30;6.40;;;12.60;99.90;;;;;;5087841;28;20223;-68
2021/08/24 04:02:43;;;;;;;7.87;7.07;;;12.50;99.90;;;;;;5071860;28;20257;-68
2021/08/24 04:05:13;;;;;;;8.53;7.50;;;12.50;99.90;;;;;;5087393;28;20258;-68
2021/08/24 04:07:42;;;;;;;7.33;6.63;;;12.50;99.90;;;;;;5090349;28;20199;-68
2021/08/24 04:10:11;;;;;;;7.57;6.90;;;12.40;99.90;;;;;;5088079;28;20223;-68
2021/08/24 04:13:33;;;;;;;9.00;7.20;;;12.40;99.90;;;;;;5086077;28;20211;-68
2021/08/24 04:16:06;;;;;;;8.07;7.00;;;12.40;99.90;;;;;;5068961;28;20568;-68
2021/08/24 04:18:34;;;;;;;8.33;7.47;;;12.30;99.90;;;;;;5087569;28;20191;-68
2021/08/24 04:21:07;;;;;;;8.23;7.33;;;12.30;99.90;;;;;;5090193;28;20234;-68
2021/08/24 04:23:36;;;;;;;9.67;7.17;;;12.30;99.90;;;;;;5085302;28;20219;-68
2021/08/24 04:26:04;;;;;;;11.97;8.20;;;12.30;99.90;;;;;;5069682;28;20219;-68
2021/08/24 04:28:34;;;;;;;8.13;7.37;;;12.30;99.90;;;;;;5087586;28;20415;-68
2021/08/24 04:31:04;;;;;;;10.13;7.87;;;12.30;99.90;;;;;;5088544;28;20302;-68
2021/08/24 04:33:32;;;;;;;8.70;7.50;;;12.30;99.90;;;;;;5086965;28;20176;-68
2021/08/24 04:36:01;;;;;;;9.87;7.43;;;12.30;99.90;;;;;;5086599;28;20270;-68
2021/08/24 04:38:29;;;;;;;10.17;7.60;;;12.30;99.90;;;;;;5086573;28;20230;-67
2021/08/24 04:40:59;;;;;;;9.10;7.77;;;12.20;99.90;;;;;;5096791;28;20517;-68
2021/08/24 04:43:27;;;;;;;8.00;7.30;;;12.20;99.90;;;;;;5087317;28;20599;-68
2021/08/24 04:45:57;;;;;;;7.80;7.00;;;12.20;99.90;;;;;;5067659;28;20223;-68
2021/08/24 04:48:26;;;;;;;8.60;7.53;;;12.20;99.90;;;;;;5086464;28;20665;-68
2021/08/24 04:50:54;;;;;;;7.90;7.10;;;12.20;99.90;;;;;;5089618;28;20204;-68
2021/08/24 04:53:24;;;;;;;11.03;7.13;;;12.20;99.90;;;;;;5089413;28;20191;-68
2021/08/24 04:55:53;;;;;;;8.13;7.23;;;12.20;99.90;;;;;;5089383;28;20291;-68
2021/08/24 04:58:21;;;;;;;11.03;7.60;;;12.20;99.90;;;;;;5072986;28;20297;-68
2021/08/24 05:00:49;;;;;;;8.23;7.20;;;12.20;99.90;;;;;;5085747;28;20183;-67
2021/08/24 05:03:19;;;;;;;9.73;8.67;;;12.10;99.90;;;;;;5085753;28;20195;-68
2021/08/24 05:05:48;;;;;;;10.83;8.40;;;12.10;99.90;;;;;;5060705;28;20754;-67
2021/08/24 05:08:16;;;;;;;14.57;8.77;;;12.10;99.90;;;;;;5067045;28;20550;-68
2021/08/24 05:10:44;;;;;;;8.50;7.57;;;12.10;99.90;;;;;;5069077;28;20212;-68
2021/08/24 05:13:13;;;;;;;10.57;7.43;;;12.10;99.90;;;;;;5067088;28;20608;-68
2021/08/24 05:15:42;;;;;;;8.60;7.30;;;12.10;99.90;;;;;;5066171;28;20204;-68
2021/08/24 05:18:10;;;;;;;9.10;8.17;;;12.10;99.90;;;;;;5070439;28;20188;-68
2021/08/24 05:20:40;;;;;;;8.67;7.70;;;12.10;99.90;;;;;;5064049;28;20246;-68
2021/08/24 05:23:08;;;;;;;8.47;7.57;;;12.10;99.90;;;;;;5062950;28;20666;-67
2021/08/24 05:25:36;;;;;;;9.43;7.57;;;12.20;99.90;;;;;;5064826;28;20286;-68
2021/08/24 05:28:05;;;;;;;10.40;8.37;;;12.20;99.90;;;;;;5061545;28;20283;-68
2021/08/24 05:30:34;;;;;;;10.47;7.70;;;12.20;99.90;;;;;;5067074;28;20673;-67
2021/08/24 05:33:02;;;;;;;8.60;7.67;;;12.20;99.90;;;;;;5067765;28;20226;-68
2021/08/24 05:35:30;;;;;;;8.57;7.60;;;12.30;99.90;;;;;;5064843;28;20279;-68
2021/08/24 05:38:01;;;;;;;15.30;9.37;;;12.30;99.90;;;;;;5065751;28;20296;-67
2021/08/24 05:40:29;;;;;;;11.73;9.23;;;12.40;99.90;;;;;;5064980;28;20556;-68
2021/08/24 05:42:57;;;;;;;13.00;8.10;;;12.50;99.90;;;;;;5065979;28;20195;-67
2021/08/24 05:45:25;;;;;;;9.27;8.07;;;12.60;99.90;;;;;;5064305;28;20196;-68
2021/08/24 05:47:54;;;;;;;11.03;8.07;;;12.70;99.90;;;;;;5065098;28;20230;-68
2021/08/24 05:50:24;;;;;;;12.93;8.47;;;12.80;99.90;;;;;;5060042;28;20192;-67
2021/08/24 05:52:53;;;;;;;11.17;8.20;;;12.80;99.90;;;;;;5069345;28;20255;-68
2021/08/24 05:55:22;;;;;;;9.17;7.87;;;12.90;99.90;;;;;;5066248;28;20192;-68
2021/08/24 05:57:52;;;;;;;10.17;8.37;;;13.00;99.90;;;;;;5063735;28;20231;-68
2021/08/24 06:00:22;;;;;;;11.47;8.77;;;13.10;99.90;;;;;;5065470;28;20231;-68
2021/08/24 06:02:51;;;;;;;9.63;8.60;;;13.20;99.90;;;;;;5063977;28;20188;-68
2021/08/24 06:05:19;;;;;;;10.57;8.43;;;13.40;99.90;;;;;;5074063;28;20281;-68
2021/08/24 06:07:48;;;;;;;8.83;7.93;;;13.50;99.90;;;;;;5067191;28;20245;-68
2021/08/24 06:10:16;;;;;;;11.70;8.27;;;13.60;99.90;;;;;;5086614;28;20275;-68
2021/08/24 06:12:46;;;;;;;8.50;7.10;;;13.70;99.90;;;;;;5066517;28;20199;-68
2021/08/24 06:15:15;;;;;;;8.00;7.20;;;13.80;99.90;;;;;;5063393;28;20261;-68
2021/08/24 06:17:46;;;;;;;9.33;7.27;;;13.90;99.90;;;;;;5083841;28;20288;-67
2021/08/24 06:20:15;;;;;;;7.87;7.07;;;13.90;99.90;;;;;;5087156;28;20226;-68
2021/08/24 06:22:43;;;;;;;7.83;7.03;;;14.00;99.90;;;;;;5086656;28;20542;-68
2021/08/24 06:25:12;;;;;;;7.83;7.00;;;14.10;99.90;;;;;;5084483;28;20215;-68
2021/08/24 06:27:40;;;;;;;8.77;7.43;;;14.20;99.90;;;;;;5085517;28;20218;-68
2021/08/24 06:30:11;;;;;;;8.27;7.43;;;14.30;99.90;;;;;;5083383;28;20589;-67
2021/08/24 06:32:44;;;;;;;9.60;7.10;;;14.40;99.90;;;;;;5086063;28;20215;-67
2021/08/24 06:35:13;;;;;;;8.63;6.63;;;14.50;99.90;;;;;;5083799;28;20624;-68
2021/08/24 06:37:42;;;;;;;11.40;6.17;;;14.60;99.90;;;;;;5085255;28;20219;-68
2021/08/24 06:40:13;;;;;;;8.47;6.40;;;14.70;99.90;;;;;;5085398;28;20286;-68
2021/08/24 06:42:44;;;;;;;9.20;5.97;;;14.80;99.90;;;;;;5088645;28;20215;-68
2021/08/24 06:45:17;;;;;;;6.47;5.73;;;14.90;99.90;;;;;;5083929;28;20619;-68
2021/08/24 06:47:46;;;;;;;6.20;5.60;;;15.10;99.90;;;;;;5063775;28;20222;-67
2021/08/24 06:50:14;;;;;;;9.00;5.73;;;15.20;99.90;;;;;;5083337;28;20199;-68
2021/08/24 06:52:45;;;;;;;6.50;5.50;;;15.30;99.90;;;;;;5085095;28;20215;-68
2021/08/24 06:55:13;;;;;;;6.03;5.53;;;15.40;99.90;;;;;;5083598;28;20194;-68
2021/08/24 06:57:44;;;;;;;6.50;5.60;;;15.50;99.90;;;;;;5084738;28;20274;-68
2021/08/24 07:00:17;;;;;;;8.07;6.00;;;15.50;99.90;;;;;;5088499;28;20453;-68
2021/08/24 07:02:46;;;;;;;6.83;5.53;;;15.60;99.90;;;;;;5088928;28;20286;-67
2021/08/24 07:05:17;;;;;;;9.83;5.50;;;15.70;99.90;;;;;;5088101;28;20227;-68
2021/08/24 07:07:45;;;;;;;5.97;5.37;;;15.80;99.90;;;;;;5089170;28;20240;-67
2021/08/24 07:10:15;;;;;;;5.67;5.00;;;15.90;99.90;;;;;;5086547;28;20257;-68
2021/08/24 07:12:45;;;;;;;6.17;5.20;;;16.00;99.90;;;;;;5089316;28;20231;-67
2021/08/24 07:15:17;;;;;;;7.50;5.07;;;16.20;99.90;;;;;;5087340;28;20282;-68
2021/08/24 07:17:47;;;;;;;6.40;5.23;;;16.20;99.90;;;;;;5091416;28;20223;-67
2021/08/24 07:20:19;;;;;;;10.23;5.40;;;16.30;99.90;;;;;;5086723;28;20199;-68
2021/08/24 07:22:50;;;;;;;8.60;4.93;;;16.40;99.90;;;;;;5088882;28;20225;-67
2021/08/24 07:25:22;;;;;;;5.50;5.00;;;16.40;99.90;;;;;;5087353;28;20276;-68
2021/08/24 07:27:50;;;;;;;9.00;5.40;;;16.50;99.90;;;;;;5088097;28;20222;-67
2021/08/24 07:30:20;;;;;;;6.00;5.40;;;16.70;99.90;;;;;;5088767;28;20592;-68
2021/08/24 07:32:49;;;;;;;6.43;4.63;;;16.80;99.90;;;;;;5072882;28;20778;-68
2021/08/24 07:35:19;;;;;;;7.93;4.90;;;17.00;99.90;;;;;;5088290;28;20212;-68
2021/08/24 07:37:47;;;;;;;7.47;4.30;;;17.10;99.90;;;;;;5089908;28;20190;-68
2021/08/24 07:40:16;;;;;;;5.83;4.70;;;17.20;99.90;;;;;;5088386;28;20201;-68
2021/08/24 07:42:46;;;;;;;5.10;4.60;;;17.40;99.90;;;;;;5088965;28;20217;-68
2021/08/24 07:45:15;;;;;;;9.83;4.70;;;17.40;99.90;;;;;;5087713;28;20284;-68
2021/08/24 07:47:48;;;;;;;5.23;4.70;;;17.50;99.90;;;;;;5087456;28;20194;-67
2021/08/24 07:50:18;;;;;;;5.33;4.77;;;17.50;99.90;;;;;;5086882;28;20194;-68
2021/08/24 07:52:46;;;;;;;8.07;4.33;;;17.50;99.90;;;;;;5069194;28;20335;-67
2021/08/24 07:55:14;;;;;;;6.53;4.83;;;17.60;99.90;;;;;;5087997;28;20230;-68
2021/08/24 07:57:42;;;;;;;6.87;4.57;;;17.80;99.90;;;;;;5071469;28;20280;-68
2021/08/24 08:00:11;;;;;;;9.37;4.93;;;17.90;99.90;;;;;;5070854;28;20215;-68
2021/08/24 08:02:40;;;;;;;4.90;4.50;;;17.90;99.90;;;;;;5068654;28;20223;-68
2021/08/24 08:05:13;;;;;;;5.17;4.40;;;18.10;99.90;;;;;;5070813;28;20696;-67
2021/08/24 08:07:41;;;;;;;6.80;4.33;;;18.30;99.90;;;;;;5087992;28;20284;-68
2021/08/24 08:10:10;;;;;;;4.67;4.20;;;18.60;99.90;;;;;;5088123;28;20213;-68
2021/08/24 08:12:39;;;;;;;6.43;4.27;;;18.60;99.90;;;;;;5084656;28;20332;-68
2021/08/24 08:15:10;;;;;;;6.13;3.87;;;18.70;99.90;;;;;;5087605;28;20631;-67
2021/08/24 08:17:38;;;;;;;5.43;4.13;;;18.80;99.90;;;;;;5088443;28;20200;-68
2021/08/24 08:20:10;;;;;;;5.30;4.40;;;18.80;99.90;;;;;;5066766;28;20188;-68
2021/08/24 08:22:42;;;;;;;4.50;4.20;;;18.90;99.90;;;;;;5082945;28;20218;-68
2021/08/24 08:25:11;;;;;;;4.63;3.83;;;19.10;99.90;;;;;;5080006;28;20227;-68
2021/08/24 08:27:39;;;;;;;6.93;4.40;;;19.20;99.90;;;;;;5087008;28;20195;-68
2021/08/24 08:30:09;;;;;;;4.40;3.90;;;19.20;99.90;;;;;;5085342;28;20200;-67
2021/08/24 08:32:40;;;;;;;4.10;3.80;;;19.30;99.90;;;;;;5084784;28;20215;-68
2021/08/24 08:35:13;;;;;;;4.07;3.77;;;19.50;99.90;;;;;;5087698;28;20449;-68
2021/08/24 08:37:43;;;;;;;4.40;3.73;;;19.60;99.90;;;;;;5088635;28;20268;-68
2021/08/24 08:40:14;;;;;;;4.10;3.80;;;19.70;99.90;;;;;;5071074;28;20199;-68
2021/08/24 08:42:58;;;;;;;3.93;3.40;;;19.70;99.90;;;;;;5088960;28;20662;-67
2021/08/24 08:45:36;;;;;;;3.77;3.37;;;19.70;99.90;;;;;;5082761;28;20199;-68
2021/08/24 08:48:18;;;;;;;4.57;3.50;;;19.90;99.90;;;;;;5087230;28;20286;-66
2021/08/24 08:50:51;;;;;;;5.00;3.33;;;20.10;99.90;;;;;;5087312;28;20248;-69
2021/08/24 08:53:30;;;;;;;4.40;3.30;;;20.30;99.90;;;;;;5085921;28;20215;-68
2021/08/24 08:56:08;;;;;;;4.23;3.10;;;20.50;99.90;;;;;;5085650;28;20277;-68
2021/08/24 08:58:46;;;;;;;3.33;3.03;;;20.70;99.90;;;;;;5080984;28;20253;-68
2021/08/24 09:01:21;;;;;;;3.17;2.93;;;20.70;99.90;;;;;;5079709;28;20199;-68
2021/08/24 09:03:55;;;;;;;4.80;3.03;;;20.60;99.90;;;;;;5086985;28;20224;-68
2021/08/24 09:06:28;;;;;;;4.77;2.80;;;20.60;99.90;;;;;;5067019;28;20231;-68
2021/08/24 09:08:59;;;;;;;2.80;2.60;;;20.90;99.90;;;;;;5084493;28;20688;-68
2021/08/24 09:11:32;;;;;;;3.47;3.17;;;21.30;99.90;;;;;;5084023;28;20225;-68
2021/08/24 09:14:05;;;;;;;3.53;2.83;;;21.50;99.90;;;;;;5078045;28;20303;-68
2021/08/24 09:16:38;;;;;;;3.50;3.20;;;21.40;99.90;;;;;;5065316;28;20200;-68
2021/08/24 09:19:13;;;;;;;3.37;3.07;;;21.30;99.90;;;;;;5081976;28;20196;-68
2021/08/24 09:21:45;;;;;;;9.17;3.30;;;21.30;99.90;;;;;;5072078;28;20719;-68
2021/08/24 09:24:18;;;;;;;3.13;2.93;;;21.50;99.90;;;;;;5092602;28;20260;-68
2021/08/24 09:27:00;;;;;;;3.47;2.90;;;21.60;99.90;;;;;;5092899;28;20200;-66
2021/08/24 09:29:33;;;;;;;3.03;2.60;;;21.90;99.90;;;;;;5075081;28;20224;-66
2021/08/24 09:32:03;;;;;;;5.87;3.50;;;22.00;99.90;;;;;;5091636;28;20192;-66
2021/08/24 09:34:37;;;;;;;6.53;3.37;;;22.10;99.90;;;;;;5095067;28;20770;-66
2021/08/24 09:37:09;;;;;;;3.67;3.17;;;22.50;99.90;;;;;;5086773;28;20551;-65
2021/08/24 09:39:51;;;;;;;4.63;2.80;;;22.70;99.90;;;;;;5082121;28;20238;-66
2021/08/24 09:42:32;;;;;;;5.40;2.90;;;23.00;99.90;;;;;;5082137;28;20634;-66
2021/08/24 09:45:05;;;;;;;2.70;2.60;;;23.20;99.90;;;;;;5084218;28;20178;-66
2021/08/24 09:47:33;;;;;;;3.30;3.00;;;23.00;99.90;;;;;;5097422;28;20223;-66
2021/08/24 09:50:07;;;;;;;2.73;2.53;;;23.30;99.90;;;;;;5067696;28;20233;-66
2021/08/24 09:52:39;;;;;;;3.93;2.80;;;23.60;99.90;;;;;;5093293;28;20286;-66
2021/08/24 09:55:14;;;;;;;4.60;2.97;;;23.80;99.90;;;;;;5098327;28;20299;-64
2021/08/24 09:57:53;;;;;;;5.37;2.73;;;23.80;99.90;;;;;;5100922;28;20244;-66
2021/08/24 10:00:24;;;;;;;3.60;3.30;;;23.90;99.90;;;;;;5089893;28;20282;-65
2021/08/24 10:02:54;;;;;;;3.90;2.73;;;24.10;99.90;;;;;;5099893;28;20253;-65
2021/08/24 10:05:36;;;;;;;4.53;2.97;;;24.20;99.90;;;;;;5087263;28;20680;-66
2021/08/24 10:08:36;;;;;;;3.27;2.73;;;24.30;99.90;;;;;;5085801;28;20260;-65
2021/08/24 10:11:12;;;;;;;3.27;2.97;;;24.40;99.90;;;;;;5081482;28;20195;-65
2021/08/24 10:13:42;;;;;;;2.90;2.70;;;24.20;99.90;;;;;;5085597;28;20257;-66
2021/08/24 10:16:19;;;;;;;5.37;3.03;;;24.10;99.90;;;;;;5090035;28;20203;-67
2021/08/24 10:18:50;;;;;;;3.87;3.07;;;24.00;99.90;;;;;;5086213;28;20700;-66
2021/08/24 10:21:32;;;;;;;3.67;3.20;;;23.70;99.90;;;;;;5070448;28;20212;-66
2021/08/24 10:24:01;;;;;;;6.23;2.60;;;23.80;99.90;;;;;;5085052;28;20179;-66
2021/08/24 10:26:34;;;;;;;3.77;2.37;;;23.80;99.90;;;;;;5085361;28;20191;-66
2021/08/24 10:29:06;;;;;;;2.13;2.03;;;24.00;99.90;;;;;;5082952;28;20253;-66
2021/08/24 10:31:38;;;;;;;3.80;2.73;;;24.40;99.90;;;;;;5085495;28;20657;-66
2021/08/24 10:34:10;;;;;;;2.70;2.43;;;24.80;99.90;;;;;;5084839;28;20653;-65
2021/08/24 10:36:42;;;;;;;5.07;2.93;;;24.50;99.90;;;;;;5085229;28;21808;-65
2021/08/24 10:39:26;;;;;;;2.60;2.50;;;24.50;99.90;;;;;;5086195;28;20939;-67
2021/08/24 10:42:08;;;;;;;3.30;2.63;;;24.50;99.90;;;;;;5086730;28;20194;-66
2021/08/24 10:44:47;;;;;;;5.17;2.67;;;24.40;99.90;;;;;;5066076;28;20230;-66
2021/08/24 10:47:26;;;;;;;4.10;2.90;;;24.50;99.90;;;;;;5084438;28;20215;-67
2021/08/24 10:49:56;;;;;;;3.23;2.93;;;24.50;99.90;;;;;;5083404;28;20645;-66
2021/08/24 10:52:44;;;;;;;5.63;2.90;;;24.20;99.90;;;;;;5084915;28;20196;-65
2021/08/24 10:55:16;;;;;;;3.30;2.80;;;24.10;99.90;;;;;;5084871;28;20204;-66
2021/08/24 10:57:59;;;;;;;2.73;2.57;;;24.10;99.90;;;;;;5079699;28;20227;-66
2021/08/24 11:00:45;;;;;;;3.43;2.80;;;24.00;99.90;;;;;;5086465;28;20286;-66
2021/08/24 11:03:48;;;;;;;5.57;2.70;;;23.90;99.90;;;;;;5084329;28;20233;-66
2021/08/24 11:06:26;;;;;;;3.10;2.60;;;24.10;99.90;;;;;;5081151;28;20412;-66
2021/08/24 11:09:06;;;;;;;2.27;2.07;;;24.50;99.90;;;;;;5070134;28;20547;-66
2021/08/24 11:11:44;;;;;;;2.97;2.20;;;24.80;99.90;;;;;;5079749;28;20227;-65
2021/08/24 11:14:22;;;;;;;2.00;1.90;;;25.00;99.90;;;;;;5085030;28;21921;-65
2021/08/24 11:17:01;;;;;;;2.30;2.10;;;24.80;99.90;;;;;;5085002;28;20230;-66
2021/08/24 11:19:50;;;;;;;2.40;2.20;;;24.60;99.90;;;;;;5083559;28;20719;-66
2021/08/24 11:22:26;;;;;;;2.13;2.03;;;24.80;99.90;;;;;;5081827;28;20223;-65
2021/08/24 11:25:02;;;;;;;3.77;2.30;;;24.80;99.90;;;;;;5084927;28;20187;-66
2021/08/24 11:27:41;;;;;;;2.33;2.13;;;25.10;99.90;;;;;;5079035;28;20768;-66
2021/08/24 11:30:20;;;;;;;2.93;2.37;;;25.00;99.90;;;;;;5083930;28;20252;-65
2021/08/24 11:32:53;;;;;;;2.70;2.37;;;24.10;99.90;;;;;;5085152;28;20231;-66
2021/08/24 11:35:39;;;;;;;2.50;2.27;;;23.50;99.90;;;;;;5085044;28;20567;-66
2021/08/24 11:38:12;;;;;;;2.87;2.50;;;23.60;99.90;;;;;;5085168;28;20282;-66
2021/08/24 11:40:45;;;;;;;2.53;2.40;;;23.60;99.90;;;;;;5086159;28;20189;-66
2021/08/24 11:43:17;;;;;;;2.73;2.53;;;23.60;99.90;;;;;;5085741;28;20220;-66
2021/08/24 11:45:49;;;;;;;3.30;2.10;;;23.50;99.90;;;;;;5082051;28;20239;-65
2021/08/24 11:48:25;;;;;;;7.13;2.30;;;23.30;99.90;;;;;;5086614;28;20246;-66
2021/08/24 11:51:00;;;;;;;2.17;2.07;;;23.30;99.90;;;;;;5086492;28;20240;-66
2021/08/24 11:53:36;;;;;;;2.30;2.13;;;23.20;99.90;;;;;;5086394;28;20601;-65
2021/08/24 11:56:07;;;;;;;4.30;2.50;;;23.20;99.90;;;;;;5085309;28;20249;-64
2021/08/24 11:58:43;;;;;;;5.57;2.23;;;23.70;99.90;;;;;;5085787;28;20287;-65
2021/08/24 12:01:18;;;;;;;2.97;2.33;;;23.80;99.90;;;;;;5086837;28;20670;-66
2021/08/24 12:03:51;;;;;;;2.77;2.57;;;23.80;99.90;;;;;;5071489;28;20288;-65
2021/08/24 12:06:25;;;;;;;4.13;2.50;;;23.50;99.90;;;;;;5087840;28;20281;-66
2021/08/24 12:08:57;;;;;;;3.57;2.40;;;23.20;99.90;;;;;;5089224;28;20982;-65
2021/08/24 12:11:42;;;;;;;2.20;2.10;;;23.10;99.90;;;;;;5082224;28;20283;-66
2021/08/24 12:14:30;;;;;;;3.77;2.37;;;23.20;99.90;;;;;;5090548;28;20226;-66
2021/08/24 12:17:04;;;;;;;4.53;2.47;;;23.40;99.90;;;;;;5073288;28;20205;-66
2021/08/24 12:19:34;;;;;;;2.40;2.30;;;23.40;99.90;;;;;;5082894;28;20247;-66
2021/08/24 12:22:26;;;;;;;2.80;2.60;;;23.20;99.90;;;;;;5090140;28;20221;-66
2021/08/24 12:24:58;;;;;;;6.00;2.80;;;23.40;99.90;;;;;;5071399;28;20612;-66
2021/08/24 12:28:08;;;;;;;2.77;2.20;;;23.40;99.90;;;;;;5083842;28;20193;-65
2021/08/24 12:31:15;;;;;;;3.00;2.50;;;23.40;99.90;;;;;;5074736;28;20294;-65
2021/08/24 12:33:46;;;;;;;2.70;2.50;;;23.10;99.90;;;;;;5078451;28;20208;-66
2021/08/24 12:36:50;;;;;;;3.27;2.20;;;23.20;99.90;;;;;;5098526;28;20242;-66
2021/08/24 12:39:37;;;;;;;4.30;2.30;;;23.30;99.90;;;;;;5085191;28;20258;-65
2021/08/24 12:42:28;;;;;;;2.57;2.37;;;23.10;99.90;;;;;;5088622;28;20222;-65
2021/08/24 12:45:26;;;;;;;3.37;2.37;;;23.00;99.90;;;;;;5083567;28;20649;-66
2021/08/24 12:48:15;;;;;;;2.50;2.40;;;23.00;99.90;;;;;;5084615;28;20225;-66
2021/08/24 12:51:12;;;;;;;2.57;2.30;;;23.00;99.90;;;;;;5079465;28;20191;-66
2021/08/24 12:53:49;;;;;;;2.30;2.10;;;22.90;99.90;;;;;;5084634;28;20203;-66
2021/08/24 12:56:43;;;;;;;4.37;2.30;;;23.10;99.90;;;;;;5085380;28;20236;-65
2021/08/24 12:59:30;;;;;;;2.83;2.23;;;23.50;99.90;;;;;;5086805;28;20230;-65
2021/08/24 13:02:25;;;;;;;3.27;2.30;;;23.40;99.90;;;;;;5085747;28;20208;-65
2021/08/24 13:04:57;;;;;;;2.70;2.50;;;23.20;99.90;;;;;;5084863;28;20248;-65
2021/08/24 13:07:42;;;;;;;3.30;2.30;;;23.20;99.90;;;;;;5085344;28;20230;-65
2021/08/24 13:10:27;;;;;;;2.30;2.27;;;23.00;99.90;;;;;;5083768;28;20246;-66
2021/08/24 13:12:56;;;;;;;3.97;2.50;;;22.80;99.90;;;;;;5081433;28;20191;-66
2021/08/24 13:15:56;;;;;;;2.60;2.40;;;22.70;99.90;;;;;;5065259;28;20689;-66
2021/08/24 13:18:30;;;;;;;3.23;2.70;;;22.50;99.90;;;;;;5041983;28;20290;-66